CheckWX is a tool to help pilots better visualize weather data.  It is not intended as a substitute for an official pre-flight weather briefing.

21:45:34 UTC

KMGM TAF
Montgomery Regional (Dannelly Field) Airport
Montgomery, Alabama, USA
KMGM 292115Z 2921/3018 09006KT P6SM -RA OVC070 FM300200 04003KT 4SM BR BKN100 FM300500 00000KT 1/4SM FG VV003 FM301500 VRB03KT P6SM FEW150

Jan-29@
21:00 UTC

Jan-29 @ 21:00 UTC

Jan-30@
02:00 UTC

Jan-30 @ 02:00 UTC

KMGM 292115Z 2921/3018 09006KT P6SM -RA OVC070
Wind
  • 090° at 6 KTS
Conditions
Light Rain
Cloud Levels
  • Overcast at 7,000' AGL

Jan-30@
02:00 UTC

Jan-30 @ 02:00 UTC

Jan-30@
05:00 UTC

Jan-30 @ 05:00 UTC

FM300200 04003KT 4SM BR BKN100

From

From Standard forecast or significant change

Wind
  • 040° at 3 KTS
Conditions
Mist
Cloud Levels
  • Broken at 10,000' AGL

Jan-30@
05:00 UTC

Jan-30 @ 05:00 UTC

Jan-30@
15:00 UTC

Jan-30 @ 15:00 UTC

FM300500 00000KT 1/4SM FG VV003

From

From Standard forecast or significant change

Conditions
Fog
Cloud Levels
  • Vertical visibility at 300' AGL

Jan-30@
15:00 UTC

Jan-30 @ 15:00 UTC

Jan-30@
18:00 UTC

Jan-30 @ 18:00 UTC

FM301500 VRB03KT P6SM FEW150

From

From Standard forecast or significant change

Wind
  • Variable at 3 KTS
Cloud Levels
  • Few at 15,000' AGL